createdAt,value
2023-03-22T00:01:13.195Z,51.92
2023-03-22T00:03:39.856Z,52.20
2023-03-22T00:06:06.346Z,51.55
2023-03-22T00:08:32.772Z,51.05
2023-03-22T00:10:59.255Z,50.11
2023-03-22T00:13:25.726Z,50.05
2023-03-22T00:15:54.653Z,51.71
2023-03-22T00:18:21.211Z,52.51
2023-03-22T00:20:47.625Z,53.68
2023-03-22T00:23:14.077Z,54.62
2023-03-22T00:25:40.509Z,54.62
2023-03-22T00:28:06.928Z,54.76
2023-03-22T00:30:33.299Z,53.42
2023-03-22T00:32:59.665Z,53.76
2023-03-22T00:35:26.095Z,53.92
2023-03-22T00:37:52.500Z,53.77
2023-03-22T00:40:18.934Z,53.29
2023-03-22T00:42:45.298Z,52.45
2023-03-22T00:45:11.669Z,51.27
2023-03-22T00:47:38.022Z,50.69
2023-03-22T00:50:04.344Z,50.72
2023-03-22T00:52:30.662Z,50.47
2023-03-22T00:54:57.009Z,50.79
2023-03-22T00:57:23.351Z,50.63
2023-03-22T00:59:49.722Z,51.16
2023-03-22T01:02:16.070Z,51.56
2023-03-22T01:04:42.404Z,50.98
2023-03-22T01:12:39.415Z,50.64
2023-03-22T01:15:05.877Z,50.70
2023-03-22T01:17:32.278Z,49.96
2023-03-22T01:19:58.693Z,49.62
2023-03-22T01:22:25.058Z,49.41
2023-03-22T01:24:51.392Z,49.11
2023-03-22T01:27:17.755Z,50.26
2023-03-22T01:29:44.313Z,50.48
2023-03-22T01:32:10.643Z,49.35
2023-03-22T01:34:36.965Z,49.18
2023-03-22T01:37:03.285Z,48.42
2023-03-22T01:39:29.685Z,47.41
2023-03-22T01:41:56.052Z,46.86
2023-03-22T01:44:22.371Z,47.18
2023-03-22T01:49:44.265Z,47.80
2023-03-22T01:52:10.653Z,48.45
2023-03-22T01:54:37.068Z,48.69
2023-03-22T01:57:03.453Z,48.39
2023-03-22T01:59:29.863Z,48.63
2023-03-22T02:01:56.274Z,48.84
2023-03-22T02:04:22.680Z,48.37
2023-03-22T02:06:49.153Z,48.89
2023-03-22T02:09:16.002Z,48.30
2023-03-22T02:14:27.355Z,48.27
2023-03-22T02:16:53.978Z,47.65
2023-03-22T02:19:20.437Z,48.16
2023-03-22T02:21:46.886Z,48.21
2023-03-22T02:24:13.367Z,48.59
2023-03-22T02:26:39.913Z,49.35
2023-03-22T02:31:46.804Z,49.16
2023-03-22T02:34:13.368Z,48.86
2023-03-22T02:36:39.762Z,48.92
2023-03-22T02:39:06.203Z,49.03
2023-03-22T02:41:32.617Z,48.83
2023-03-22T02:43:59.045Z,49.05
2023-03-22T02:46:25.417Z,49.31
2023-03-22T02:48:51.843Z,48.29
2023-03-22T02:51:18.246Z,47.69
2023-03-22T02:53:44.668Z,47.08
2023-03-22T02:56:11.118Z,46.79
2023-03-22T02:58:37.555Z,47.42
2023-03-22T03:01:03.963Z,47.85
2023-03-22T03:03:30.435Z,48.97
2023-03-22T03:05:56.926Z,49.43
2023-03-22T03:08:23.426Z,50.06
2023-03-22T03:10:49.803Z,50.06
2023-03-22T03:13:16.441Z,51.21
2023-03-22T03:15:43.053Z,50.22
2023-03-22T03:18:09.466Z,49.75
2023-03-22T03:20:35.949Z,50.89
2023-03-22T03:23:02.513Z,50.61
2023-03-22T03:25:30.276Z,51.00
2023-03-22T03:28:05.931Z,50.53
2023-03-22T03:30:32.448Z,50.22
2023-03-22T03:32:58.934Z,49.95
2023-03-22T03:35:25.449Z,50.61
2023-03-22T03:37:53.068Z,50.37
2023-03-22T03:40:19.444Z,50.11
2023-03-22T03:42:45.914Z,50.27
2023-03-22T03:45:12.385Z,50.33
2023-03-22T03:47:46.134Z,49.92
2023-03-22T03:50:12.581Z,49.71
2023-03-22T03:52:38.933Z,49.26
2023-03-22T03:55:05.396Z,48.96
2023-03-22T03:57:32.023Z,49.15
2023-03-22T03:59:59.628Z,49.43
2023-03-22T04:02:27.037Z,50.66
2023-03-22T04:04:53.531Z,51.97
2023-03-22T04:07:21.311Z,52.74
2023-03-22T04:09:47.788Z,52.96
2023-03-22T04:12:14.266Z,53.03
2023-03-22T04:14:40.792Z,52.06
2023-03-22T04:17:07.282Z,51.57
2023-03-22T04:19:33.735Z,51.66
2023-03-22T04:22:00.288Z,52.50
2023-03-22T04:24:35.739Z,52.50
2023-03-22T04:27:02.234Z,52.14
2023-03-22T04:29:28.740Z,51.54
2023-03-22T04:31:55.181Z,51.26
2023-03-22T04:34:21.743Z,51.45
2023-03-22T04:36:48.186Z,51.94
2023-03-22T04:39:14.639Z,51.05
2023-03-22T04:41:41.122Z,51.21
2023-03-22T04:44:07.605Z,51.59
2023-03-22T04:46:34.158Z,51.66
2023-03-22T04:49:00.654Z,51.77
2023-03-22T04:51:27.091Z,52.44
2023-03-22T04:53:53.487Z,51.97
2023-03-22T04:56:19.861Z,52.28
2023-03-22T04:58:46.202Z,51.59
2023-03-22T05:01:12.596Z,51.48
2023-03-22T05:03:38.971Z,51.89
2023-03-22T05:06:05.394Z,51.63
2023-03-22T05:08:31.743Z,50.59
2023-03-22T05:10:58.106Z,51.02
2023-03-22T05:13:24.496Z,50.97
2023-03-22T05:15:51.272Z,50.29
2023-03-22T05:18:17.671Z,50.27
2023-03-22T05:20:44.052Z,49.47
2023-03-22T05:23:10.424Z,50.62
2023-03-22T05:25:36.763Z,50.20
2023-03-22T05:28:03.120Z,50.48
2023-03-22T05:30:29.462Z,50.37
2023-03-22T05:33:00.727Z,50.63
2023-03-22T05:35:42.302Z,50.57
2023-03-22T05:38:09.086Z,50.52
2023-03-22T05:40:35.440Z,50.96
2023-03-22T05:43:01.824Z,51.13
2023-03-22T05:45:28.218Z,51.02
2023-03-22T05:50:35.030Z,52.13
2023-03-22T05:53:01.526Z,51.30
2023-03-22T05:55:27.942Z,51.79
2023-03-22T05:57:54.301Z,50.44
2023-03-22T06:00:20.660Z,50.32
2023-03-22T06:02:47.111Z,50.64
2023-03-22T06:05:13.635Z,50.73
2023-03-22T06:07:40.210Z,51.28
2023-03-22T06:10:06.673Z,53.00
2023-03-22T06:12:33.038Z,54.06
2023-03-22T06:14:59.553Z,53.74
2023-03-22T06:17:25.986Z,54.09
2023-03-22T06:19:54.736Z,53.08
2023-03-22T06:22:21.140Z,53.22
2023-03-22T06:24:47.571Z,53.80
2023-03-22T06:27:14.026Z,53.16
2023-03-22T06:29:40.490Z,54.33
2023-03-22T06:32:06.929Z,53.77
2023-03-22T06:34:33.347Z,53.36
2023-03-22T06:36:59.685Z,53.39
2023-03-22T06:39:26.053Z,52.83
2023-03-22T06:41:52.559Z,52.80
2023-03-22T06:44:22.156Z,52.66
2023-03-22T06:46:48.501Z,52.86
2023-03-22T06:49:14.906Z,52.55
2023-03-22T06:51:41.370Z,52.10
2023-03-22T06:54:07.741Z,51.72
2023-03-22T06:56:34.130Z,51.90
2023-03-22T06:59:01.903Z,52.32
2023-03-22T07:01:28.360Z,51.09
2023-03-22T07:03:54.750Z,51.53
2023-03-22T07:06:21.124Z,51.67
2023-03-22T07:08:47.535Z,52.92
2023-03-22T07:11:13.962Z,52.60
2023-03-22T07:13:40.392Z,52.48
2023-03-22T07:16:06.754Z,51.66
2023-03-22T07:18:33.230Z,52.55
2023-03-22T07:20:59.575Z,52.73
2023-03-22T07:23:25.979Z,53.62
2023-03-22T07:25:52.386Z,53.07
2023-03-22T07:28:18.778Z,52.71
2023-03-22T07:36:25.764Z,51.33
2023-03-22T07:38:52.156Z,51.55
2023-03-22T07:41:19.461Z,51.64
2023-03-22T07:43:55.197Z,51.95
2023-03-22T07:49:19.360Z,53.69
2023-03-22T07:51:45.755Z,53.17
2023-03-22T07:54:15.787Z,51.83
2023-03-22T07:56:49.187Z,51.92
2023-03-22T07:59:15.570Z,52.79
2023-03-22T08:01:49.292Z,52.79
2023-03-22T08:04:16.778Z,51.31
2023-03-22T08:06:43.429Z,50.71
2023-03-22T08:09:09.829Z,50.99
2023-03-22T08:11:39.654Z,51.25
2023-03-22T08:14:07.541Z,52.02
2023-03-22T08:16:34.175Z,52.01
2023-03-22T08:19:00.591Z,52.06
2023-03-22T08:21:27.024Z,52.86
2023-03-22T08:23:53.878Z,52.17
2023-03-22T08:26:21.379Z,52.20
2023-03-22T08:31:43.250Z,52.42
2023-03-22T08:34:15.426Z,53.02
2023-03-22T08:36:41.948Z,51.22
2023-03-22T08:39:08.439Z,50.91
2023-03-22T08:41:34.877Z,51.49
2023-03-22T08:44:01.273Z,52.42
2023-03-22T08:46:29.883Z,54.67
2023-03-22T08:48:56.360Z,56.05
2023-03-22T08:51:23.064Z,55.74
2023-03-22T08:53:50.382Z,58.93
2023-03-22T08:56:16.857Z,61.57
2023-03-22T08:58:43.254Z,60.10
2023-03-22T09:01:09.971Z,62.74
2023-03-22T09:03:36.421Z,64.68
2023-03-22T09:06:02.839Z,65.10
2023-03-22T09:08:29.246Z,63.49
2023-03-22T09:10:55.670Z,63.26
2023-03-22T09:13:22.125Z,63.76
2023-03-22T09:15:48.616Z,63.46
2023-03-22T09:18:15.125Z,60.82
2023-03-22T09:20:41.879Z,62.40
2023-03-22T09:23:08.477Z,63.16
2023-03-22T09:25:34.938Z,60.73
2023-03-22T09:28:04.387Z,62.20
2023-03-22T09:30:30.832Z,62.17
2023-03-22T09:32:57.213Z,62.91
2023-03-22T09:35:23.691Z,63.85
2023-03-22T09:37:50.162Z,63.68
2023-03-22T09:40:16.523Z,63.61
2023-03-22T09:42:42.973Z,63.70
2023-03-22T09:45:09.384Z,63.10
2023-03-22T09:47:44.281Z,63.61
2023-03-22T09:50:11.333Z,63.78
2023-03-22T09:52:37.728Z,63.51
2023-03-22T09:55:04.122Z,64.21
2023-03-22T09:57:30.521Z,64.96
2023-03-22T09:59:56.896Z,64.16
2023-03-22T10:02:23.336Z,63.52
2023-03-22T10:04:49.854Z,61.16
2023-03-22T10:07:16.269Z,64.14
2023-03-22T10:09:42.673Z,59.52
2023-03-22T10:12:12.921Z,63.92
2023-03-22T10:14:39.344Z,65.08
2023-03-22T10:17:05.814Z,65.29
2023-03-22T10:19:32.260Z,64.51
2023-03-22T10:21:58.646Z,65.95
2023-03-22T10:24:25.019Z,66.69
2023-03-22T10:26:53.365Z,66.77
2023-03-22T10:29:19.796Z,66.96
2023-03-22T10:31:46.281Z,66.57
2023-03-22T10:34:13.065Z,65.56
2023-03-22T10:36:39.484Z,66.17
2023-03-22T10:39:05.833Z,63.64
2023-03-22T10:41:32.205Z,64.09
2023-03-22T10:43:58.620Z,63.27
2023-03-22T10:46:25.050Z,63.18
2023-03-22T10:48:51.433Z,61.86
2023-03-22T10:51:17.852Z,63.38
2023-03-22T10:53:44.278Z,60.73
2023-03-22T10:56:10.696Z,61.18
2023-03-22T10:58:37.169Z,59.38
2023-03-22T11:01:03.583Z,61.54
2023-03-22T11:03:29.985Z,57.72
2023-03-22T11:05:56.328Z,56.48
2023-03-22T11:08:22.813Z,55.51
2023-03-22T11:10:58.366Z,55.10
2023-03-22T11:13:24.804Z,58.74
2023-03-22T11:15:51.277Z,62.07
2023-03-22T11:18:18.824Z,60.60
2023-03-22T11:20:45.235Z,57.40
2023-03-22T11:23:11.583Z,59.41
2023-03-22T11:25:37.966Z,60.59
2023-03-22T11:28:04.375Z,58.46
2023-03-22T11:30:30.699Z,55.43
2023-03-22T11:32:57.056Z,57.07
2023-03-22T11:35:23.428Z,57.40
2023-03-22T11:37:49.845Z,55.73
2023-03-22T11:40:16.260Z,54.47
2023-03-22T11:42:42.727Z,54.10
2023-03-22T11:45:09.273Z,52.49
2023-03-22T11:47:35.694Z,51.62
2023-03-22T11:50:02.105Z,50.64
2023-03-22T11:52:28.483Z,54.04
2023-03-22T11:54:54.852Z,51.73
2023-03-22T11:57:21.222Z,52.09
2023-03-22T11:59:47.660Z,52.70
2023-03-22T12:02:14.101Z,53.34
2023-03-22T12:04:40.612Z,53.38
2023-03-22T12:07:06.961Z,54.52
2023-03-22T12:09:35.217Z,54.65
2023-03-22T12:12:01.613Z,54.04
2023-03-22T12:14:28.046Z,53.27
2023-03-22T12:16:54.392Z,52.96
2023-03-22T12:19:20.790Z,52.71
2023-03-22T12:21:47.226Z,53.08
2023-03-22T12:24:13.572Z,52.10
2023-03-22T12:26:39.916Z,52.55
2023-03-22T12:29:06.264Z,52.44
2023-03-22T12:31:32.641Z,52.77
2023-03-22T12:33:59.055Z,51.60
2023-03-22T12:36:27.055Z,51.39
2023-03-22T12:38:55.978Z,50.65
2023-03-22T12:41:22.434Z,51.70
2023-03-22T12:43:48.853Z,50.72
2023-03-22T12:46:15.386Z,50.57
2023-03-22T12:48:49.900Z,50.78
2023-03-22T12:51:16.364Z,48.70
2023-03-22T12:53:42.770Z,47.98
2023-03-22T12:56:09.195Z,48.67
2023-03-22T12:58:35.544Z,47.76
2023-03-22T13:01:01.972Z,47.81
2023-03-22T13:03:28.540Z,49.72
2023-03-22T13:05:55.219Z,51.74
2023-03-22T13:08:21.575Z,53.74
2023-03-22T13:10:47.946Z,51.46
2023-03-22T13:13:14.401Z,49.13
2023-03-22T13:15:42.248Z,50.73
2023-03-22T13:18:09.082Z,50.36
2023-03-22T13:20:35.454Z,54.92
2023-03-22T13:23:01.841Z,55.43
2023-03-22T13:25:28.207Z,51.01
2023-03-22T13:27:54.631Z,49.77
2023-03-22T13:30:21.051Z,49.53
2023-03-22T13:32:47.470Z,48.21
2023-03-22T13:35:23.493Z,47.94
2023-03-22T13:37:49.985Z,47.40
2023-03-22T13:40:16.337Z,47.29
2023-03-22T13:42:42.708Z,48.72
2023-03-22T13:45:09.072Z,48.20
2023-03-22T13:47:35.664Z,46.75
2023-03-22T13:50:06.117Z,45.70
2023-03-22T13:52:33.650Z,45.87
2023-03-22T13:54:59.998Z,45.47
2023-03-22T13:57:26.822Z,46.73
2023-03-22T14:00:03.102Z,46.09
2023-03-22T14:05:15.791Z,43.84
2023-03-22T14:07:42.316Z,43.27
2023-03-22T14:10:08.701Z,42.33
2023-03-22T14:12:35.080Z,41.11
2023-03-22T14:15:01.580Z,38.91
2023-03-22T14:17:28.075Z,40.53
2023-03-22T14:19:54.641Z,41.55
